Latest Weather Observations for Frankston

IDV60901

Issued at 1:41 pm EST Wednesday 1 June 2016 (issued every 10 minutes, with the page automatically refreshed every 10 minutes)

About weather observations | Map of Melbourne area stations | Latest observations for Melbourne area | Other Formats
Station Details ID: 086371 Name: FRANKSTON AWS Lat: -38.15 Lon: 145.12 Height: 6.0 m
Data from the previous 72 hours. | See also: Recent months at Frankston
Date/Time
EST
Tmp

°C
App
Tmp
°C
Dew
Point
°C
Rel
Hum
%
Delta-T

°C
Wind Press
QNH
hPa
Press
MSL
hPa
Rain
since
9 am
mm
Dir
 
Spd
km/h
Gust
km/h
Spd
kts
Gust
kts
01/01:30pm 11.0 10.6 8.1 82 1.4 CALM 0 0 0 0 - - -
01/01:00pm 10.8 10.3 8.0 83 1.4 CALM 0 0 0 0 - - -
01/12:30pm 10.4 9.9 7.8 84 1.3 CALM 0 0 0 0 - - -
01/12:00pm 9.7 9.1 7.5 86 1.0 CALM 0 0 0 0 - - -
01/11:30am 9.6 9.0 7.4 86 1.0 CALM 0 0 0 0 - - -
01/11:00am 9.3 7.9 7.1 86 1.0 N 4 6 2 3 - - -
01/10:30am 9.1 8.4 7.1 87 0.9 CALM 0 0 0 0 - - -
01/10:00am 8.5 6.9 6.5 87 0.9 N 4 4 2 2 - - -
01/09:30am 8.4 7.6 6.5 88 0.9 CALM 0 4 0 2 - - -
01/09:00am 7.7 6.4 6.0 89 0.8 E 2 4 1 2 - - -
01/08:30am 6.6 5.5 4.9 89 0.7 CALM 0 0 0 0 - - -
01/08:00am 6.1 4.5 4.4 89 0.7 E 2 4 1 2 - - -
01/07:30am 5.8 4.1 4.1 89 0.7 E 2 4 1 2 - - -
01/07:00am 6.3 5.1 4.6 89 0.7 CALM 0 4 0 2 - - -
01/06:30am 6.8 5.3 5.1 89 0.7 ENE 2 4 1 2 - - -
01/06:00am 6.4 4.8 4.7 89 0.7 E 2 4 1 2 - - -
01/05:30am 6.5 5.0 4.8 89 0.7 E 2 6 1 3 - - -
01/05:00am 6.2 4.6 4.5 89 0.7 ESE 2 4 1 2 - - -
01/04:30am 6.7 5.6 4.9 88 0.8 CALM 0 0 0 0 - - -
01/04:00am 7.0 5.5 5.2 88 0.8 NE 2 6 1 3 - - -
01/03:30am 7.2 5.4 5.3 88 0.8 E 4 6 2 3 - - -
01/03:00am 7.7 6.0 5.8 88 0.9 NE 4 6 2 3 - - -
01/02:30am 8.2 6.6 6.3 88 0.9 ENE 4 7 2 4 - - -
01/02:00am 8.4 6.5 6.5 88 0.9 E 6 9 3 5 - - -
01/01:30am 8.8 6.7 6.8 87 0.9 E 7 13 4 7 - - -
01/01:00am 9.0 6.6 7.0 87 0.9 ESE 9 15 5 8 - - -
01/12:30am 9.3 6.5 7.1 86 1.0 ESE 11 20 6 11 - - -
01/12:00am 9.6 7.2 7.0 84 1.2 ESE 9 17 5 9 - - -
 
Date/Time
EST
Tmp

°C
App
Tmp
°C
Dew
Point
°C
Rel
Hum
%
Delta-T

°C
Wind Press
QNH
hPa
Press
MSL
hPa
Rain
since
9 am
mm
Dir
 
Spd
km/h
Gust
km/h
Spd
kts
Gust
kts
31/11:30pm 9.9 7.5 7.2 83 1.3 ESE 9 15 5 8 - - -
31/11:00pm 10.2 7.9 7.3 82 1.4 ESE 9 17 5 9 - - -
31/10:30pm 10.3 7.5 7.0 80 1.6 ESE 11 19 6 10 - - -
31/10:00pm 10.5 8.1 6.8 78 1.7 ESE 9 15 5 8 - - -
31/09:30pm 10.7 8.2 6.6 76 1.9 ESE 9 15 5 8 - - -
31/09:00pm 10.9 8.8 6.5 74 2.1 ESE 7 13 4 7 - - -
31/08:30pm 11.3 9.2 6.8 74 2.1 ESE 7 13 4 7 - - -
31/08:00pm 11.4 9.3 6.7 73 2.2 ESE 7 13 4 7 - - -
31/07:30pm 11.7 9.3 7.0 73 2.2 ESE 9 15 5 8 - - -
31/07:00pm 11.7 9.6 6.8 72 2.3 ESE 7 11 4 6 - - -
31/06:30pm 12.2 10.2 7.1 71 2.5 ESE 7 11 4 6 - - -
31/06:00pm 12.6 10.9 7.5 71 2.5 ESE 6 9 3 5 - - -
31/05:30pm 13.2 11.8 7.4 68 2.8 ESE 4 7 2 4 - - -
31/05:00pm 14.2 12.4 7.0 62 3.5 SE 6 9 3 5 - - -
31/04:30pm 15.2 13.1 6.5 56 4.2 ESE 7 11 4 6 - - -
31/04:00pm 15.6 13.4 6.1 53 4.6 SE 7 11 4 6 - - -
31/03:30pm 15.7 13.6 5.9 52 4.7 ESE 6 11 3 6 - - -
31/03:00pm 15.5 13.3 5.1 50 4.9 ENE 6 9 3 5 - - -
31/02:30pm 15.8 14.8 9.0 64 3.5 E 4 9 2 5 - - -
31/02:00pm 13.3 12.6 8.4 72 2.4 W 2 6 1 3 - - -
31/01:30pm 11.9 10.8 8.4 79 1.7 WSW 4 6 2 3 - - -
31/01:00pm 11.3 10.1 8.0 80 1.6 WSW 4 6 2 3 - - -
31/12:30pm 11.1 9.5 7.8 80 1.6 WSW 6 7 3 4 - - -
31/12:00pm 11.1 9.5 7.8 80 1.6 W 6 7 3 4 - - -
31/11:30am 11.0 10.5 7.9 81 1.5 CALM 0 0 0 0 - - -
31/11:00am 9.8 9.1 6.9 82 1.4 CALM 0 0 0 0 - - -
31/10:30am 9.3 8.5 6.6 83 1.3 CALM 0 0 0 0 - - -
31/10:00am 8.6 7.7 6.1 84 1.1 CALM 0 4 0 2 - - -
31/09:30am 8.3 7.4 6.1 86 1.0 CALM 0 4 0 2 - - -
31/09:00am 7.8 6.9 5.9 88 0.9 CALM 0 4 0 2 - - -
31/08:30am 7.0 5.6 5.3 89 0.8 E 2 2 1 1 - - -
31/08:00am 4.8 2.9 3.1 89 0.7 ESE 2 2 1 1 - - -
31/07:30am 5.4 3.2 3.6 88 0.8 E 4 4 2 2 - - -
31/07:00am 6.3 5.1 4.5 88 0.8 CALM 0 0 0 0 - - -
31/06:30am 6.5 5.3 4.7 88 0.8 CALM 0 0 0 0 - - -
31/06:00am 5.9 4.2 3.9 87 0.8 SE 2 4 1 2 - - -
31/05:30am 5.4 3.6 3.3 86 0.9 SE 2 2 1 1 - - -
31/05:00am 5.7 3.5 3.5 86 0.9 SE 4 4 2 2 - - -
31/04:30am 6.2 3.7 4.0 86 0.9 ESE 6 7 3 4 - - -
31/04:00am 6.0 3.5 3.7 85 1.0 ESE 6 7 3 4 - - -
31/03:30am 6.2 3.7 3.9 85 1.0 SE 6 7 3 4 - - -
31/03:00am 6.2 4.1 3.7 84 1.1 ESE 4 6 2 3 - - -
31/02:30am 6.8 4.8 4.3 84 1.1 ESE 4 6 2 3 - - -
31/02:00am 7.2 5.3 4.7 84 1.1 E 4 6 2 3 - - -
31/01:30am 7.3 5.3 4.6 83 1.2 ESE 4 6 2 3 - - -
31/01:00am 7.9 6.0 5.0 82 1.3 E 4 6 2 3 - - -
31/12:30am 7.9 5.4 5.0 82 1.3 ESE 7 9 4 5 - - -
31/12:00am 7.9 5.6 4.8 81 1.4 ESE 6 9 3 5 - - -
 
Date/Time
EST
Tmp

°C
App
Tmp
°C
Dew
Point
°C
Rel
Hum
%
Delta-T

°C
Wind Press
QNH
hPa
Press
MSL
hPa
Rain
since
9 am
mm
Dir
 
Spd
km/h
Gust
km/h
Spd
kts
Gust
kts
30/11:30pm 8.3 6.0 4.7 78 1.6 E 6 9 3 5 - - -
30/11:00pm 9.3 6.5 5.3 76 1.8 ESE 9 13 5 7 - - -
30/10:30pm 9.6 6.9 5.6 76 1.8 ESE 9 15 5 8 - - -
30/10:00pm 10.0 8.0 6.2 77 1.8 ESE 6 9 3 5 - - -
30/09:30pm 10.1 8.1 6.4 78 1.7 ESE 6 9 3 5 - - -
30/09:00pm 10.3 8.7 6.5 77 1.8 SE 4 7 2 4 - - -
30/08:30pm 10.2 8.6 6.2 76 1.9 SE 4 9 2 5 - - -
30/08:00pm 10.5 8.5 6.3 75 2.0 SE 6 9 3 5 - - -
30/07:30pm 10.4 8.3 5.8 73 2.1 SSE 6 7 3 4 - - -
30/07:00pm 10.5 8.7 5.5 71 2.3 SSE 4 7 2 4 - - -
30/06:30pm 10.9 8.7 5.4 69 2.5 SSE 6 7 3 4 - - -
30/06:00pm 11.3 9.5 5.4 67 2.7 SE 4 6 2 3 - - -
30/05:30pm 11.9 10.5 5.5 65 3.0 SE 2 4 1 2 - - -
30/05:00pm 13.1 10.9 5.5 60 3.6 ESE 6 7 3 4 - - -
30/04:30pm 13.5 11.2 5.7 59 3.7 ESE 7 13 4 7 - - -
30/04:00pm 13.7 11.3 5.1 56 4.0 ESE 7 11 4 6 - - -
30/03:30pm 13.9 11.5 5.3 56 4.0 ESE 7 11 4 6 - - -
30/03:00pm 13.4 10.8 4.0 53 4.3 ESE 7 13 4 7 - - -
30/02:30pm 13.6 10.6 3.9 52 4.4 SE 9 13 5 7 - - -
30/02:00pm 13.6 11.2 5.3 57 3.9 SE 7 13 4 7 - - -
30/01:30pm 11.7 8.7 6.0 68 2.7 WSW 11 13 6 7 - - -
30/01:00pm 11.6 9.3 5.9 68 2.7 W 7 9 4 5 - - -
30/12:30pm 11.4 9.3 5.9 69 2.6 W 6 7 3 4 - - -
30/12:00pm 11.3 9.2 5.6 68 2.6 WNW 6 7 3 4 - - -
30/11:30am 11.2 9.1 5.9 70 2.5 NW 6 7 3 4 - - -
30/11:00am 11.1 10.3 6.3 72 2.2 CALM 0 0 0 0 - - -
30/10:30am 11.1 10.3 6.3 72 2.2 CALM 0 0 0 0 - - -
30/10:00am 10.4 9.4 5.6 72 2.2 CALM 0 0 0 0 - - -
30/09:30am 10.4 9.5 6.0 74 2.0 CALM 0 0 0 0 - - -
30/09:00am 9.6 8.2 5.6 76 1.8 E 2 4 1 2 - - -
30/08:30am 8.8 7.7 5.0 77 1.7 CALM 0 0 0 0 - - -
30/08:00am 8.6 6.3 4.8 77 1.7 ESE 6 7 3 4 - - -
30/07:30am 8.3 6.3 4.5 77 1.7 ESE 4 6 2 3 - - -
30/07:00am 8.4 6.8 4.6 77 1.7 E 2 6 1 3 - - -
30/06:30am 8.4 6.4 4.6 77 1.7 ESE 4 4 2 2 - - -
30/06:00am 8.3 6.7 4.5 77 1.7 SSE 2 6 1 3 - - -
30/05:30am 8.3 6.3 4.5 77 1.7 ESE 4 6 2 3 - - -
30/05:00am 8.2 6.2 4.4 77 1.7 ESE 4 6 2 3 - - -
30/04:30am 8.2 5.8 4.2 76 1.7 ESE 6 7 3 4 - - -
30/04:00am 8.4 6.0 4.4 76 1.8 ESE 6 6 3 3 - - -
30/03:30am 8.7 6.8 4.7 76 1.8 E 4 6 2 3 - - -
30/03:00am 8.7 7.1 4.5 75 1.9 E 2 6 1 3 - - -
30/02:30am 8.8 6.8 4.6 75 1.9 ENE 4 7 2 4 - - -
30/02:00am 8.9 7.3 4.5 74 1.9 ENE 2 6 1 3 - - -
30/01:30am 9.2 6.9 4.6 73 2.0 ENE 6 7 3 4 - - -
30/01:00am 9.9 7.8 3.9 66 2.6 ESE 4 4 2 2 - - -
30/12:30am 10.7 8.2 3.5 61 3.2 SE 6 7 3 4 - - -
30/12:00am 12.1 9.7 4.1 58 3.6 SE 6 9 3 5 - - -
 
Date/Time
EST
Tmp

°C
App
Tmp
°C
Dew
Point
°C
Rel
Hum
%
Delta-T

°C
Wind Press
QNH
hPa
Press
MSL
hPa
Rain
since
9 am
mm
Dir
 
Spd
km/h
Gust
km/h
Spd
kts
Gust
kts
29/11:30pm 11.4 8.7 3.9 60 3.3 SSE 7 9 4 5 - - -
29/11:00pm 10.2 7.5 3.7 64 2.8 SSE 7 9 4 5 - - -
29/10:30pm 10.5 7.8 3.8 63 3.0 SSE 7 9 4 5 - - -
29/10:00pm 10.4 7.7 3.9 64 2.9 SSE 7 9 4 5 - - -
29/09:30pm 11.2 8.6 4.0 61 3.2 S 7 9 4 5 - - -
29/09:00pm 11.0 8.5 4.7 65 2.8 S 7 11 4 6 - - -
29/08:30pm 11.4 9.6 5.3 66 2.8 S 4 6 2 3 - - -
29/08:00pm 11.5 9.4 6.0 69 2.6 S 6 6 3 3 - - -
29/07:30pm 11.6 9.9 5.7 67 2.7 S 4 7 2 4 - - -
29/07:00pm 12.0 9.6 5.4 64 3.1 SSW 7 9 4 5 - - -
29/06:30pm 11.9 9.5 5.3 64 3.0 SSW 7 11 4 6 - - -
29/06:00pm 12.9 9.1 5.6 61 3.4 W 15 17 8 9 - - -
29/05:30pm 12.8 8.6 5.5 61 3.4 WNW 17 19 9 10 - - -
29/05:00pm 12.8 8.6 5.7 62 3.3 W 17 20 9 11 - - -
29/04:30pm 12.7 8.2 6.3 65 3.0 WNW 19 22 10 12 - - -
29/04:00pm 12.6 7.5 6.2 65 3.0 W 22 26 12 14 - - -
29/03:30pm 12.7 8.0 6.1 64 3.1 W 20 26 11 14 - - -
29/03:00pm 12.7 8.1 5.4 61 3.4 W 19 22 10 12 - - -
29/02:30pm 12.8 8.2 6.4 65 3.0 W 20 26 11 14 - - -
29/02:00pm 12.5 7.9 6.3 66 2.9 WNW 20 24 11 13 - - -

Latest Capital City Observations: Canberra | Sydney | Melbourne | Brisbane | Adelaide | Perth | Hobart | Darwin

Other Formats:

Comma delimited format used in spreadsheet applications
http://www.bom.gov.au/fwo/IDV60901/IDV60901.94871.axf

JavaScript Object Notation format (JSON) in row-major order
http://www.bom.gov.au/fwo/IDV60901/IDV60901.94871.json